createdAt,value
2024-01-25T00:00:51.831Z,197.74
2024-01-25T00:01:51.810Z,198.20
2024-01-25T00:02:51.642Z,198.59
2024-01-25T00:03:51.704Z,199.10
2024-01-25T00:04:52.324Z,198.55
2024-01-25T00:05:51.695Z,199.15
2024-01-25T00:06:51.855Z,198.21
2024-01-25T00:07:51.661Z,198.63
2024-01-25T00:08:51.589Z,198.91
2024-01-25T00:09:51.673Z,199.29
2024-01-25T00:10:51.588Z,198.32
2024-01-25T00:11:51.555Z,198.58
2024-01-25T00:12:51.600Z,198.71
2024-01-25T00:13:51.560Z,197.75
2024-01-25T00:14:51.556Z,197.64
2024-01-25T00:15:51.564Z,198.15
2024-01-25T00:16:51.537Z,197.91
2024-01-25T00:17:51.566Z,198.48
2024-01-25T00:18:51.594Z,199.76
2024-01-25T00:19:51.557Z,199.77
2024-01-25T00:20:51.503Z,199.82
2024-01-25T00:21:51.600Z,199.87
2024-01-25T00:22:51.513Z,199.88
2024-01-25T00:23:51.493Z,200.35
2024-01-25T00:24:51.509Z,199.57
2024-01-25T00:25:51.458Z,199.71
2024-01-25T00:26:51.452Z,199.76
2024-01-25T00:27:51.516Z,199.50
2024-01-25T00:28:51.429Z,199.56
2024-01-25T00:29:51.439Z,199.55
2024-01-25T00:30:51.447Z,199.18
2024-01-25T00:31:51.413Z,198.77
2024-01-25T00:32:51.453Z,199.63
2024-01-25T00:33:51.545Z,198.52
2024-01-25T00:34:51.912Z,198.23
2024-01-25T00:35:51.383Z,198.22
2024-01-25T00:36:51.405Z,199.30
2024-01-25T00:37:51.377Z,199.02
2024-01-25T00:38:51.360Z,198.88
2024-01-25T00:39:52.507Z,197.92
2024-01-25T00:40:51.354Z,198.96
2024-01-25T00:41:51.342Z,197.55
2024-01-25T00:42:51.388Z,197.63
2024-01-25T00:43:51.327Z,197.74
2024-01-25T00:44:52.776Z,198.25
2024-01-25T00:45:51.365Z,198.82
2024-01-25T00:46:51.286Z,199.05
2024-01-25T00:47:51.425Z,198.32
2024-01-25T00:48:51.604Z,198.39
2024-01-25T00:49:52.025Z,198.39
2024-01-25T00:50:51.271Z,198.75
2024-01-25T00:51:51.343Z,197.54
2024-01-25T00:52:51.247Z,198.16
2024-01-25T00:53:51.244Z,199.08
2024-01-25T00:54:52.101Z,197.86
2024-01-25T00:55:51.217Z,197.41
2024-01-25T00:56:51.203Z,199.00
2024-01-25T00:57:51.238Z,199.63
2024-01-25T00:58:51.190Z,199.06
2024-01-25T00:59:52.051Z,199.12
2024-01-25T01:00:51.359Z,198.38
2024-01-25T01:01:51.187Z,198.53
2024-01-25T01:02:51.171Z,197.58
2024-01-25T01:03:51.188Z,197.00
2024-01-25T01:04:51.234Z,197.21
2024-01-25T01:05:51.171Z,197.74
2024-01-25T01:06:51.202Z,198.64
2024-01-25T01:07:51.684Z,198.51
2024-01-25T01:08:51.102Z,196.82
2024-01-25T01:09:51.126Z,198.10
2024-01-25T01:10:51.077Z,197.63
2024-01-25T01:11:51.056Z,197.71
2024-01-25T01:12:51.062Z,199.37
2024-01-25T01:13:51.029Z,198.72
2024-01-25T01:14:51.017Z,197.34
2024-01-25T01:15:51.108Z,197.36
2024-01-25T01:16:50.999Z,197.07
2024-01-25T01:17:51.113Z,198.82
2024-01-25T01:18:51.156Z,198.57
2024-01-25T01:19:51.164Z,198.99
2024-01-25T01:20:50.954Z,198.27
2024-01-25T01:21:50.969Z,197.05
2024-01-25T01:22:50.934Z,198.54
2024-01-25T01:23:50.931Z,197.55
2024-01-25T01:24:50.943Z,198.73
2024-01-25T01:25:50.914Z,197.52
2024-01-25T01:26:50.919Z,197.88
2024-01-25T01:27:50.963Z,199.42
2024-01-25T01:28:50.930Z,197.50
2024-01-25T01:29:50.971Z,197.25
2024-01-25T01:30:50.972Z,198.00
2024-01-25T01:31:50.958Z,199.40
2024-01-25T01:32:51.145Z,198.61
2024-01-25T01:33:51.091Z,197.30
2024-01-25T01:34:51.070Z,198.25
2024-01-25T01:35:50.984Z,196.75
2024-01-25T01:36:50.993Z,197.23
2024-01-25T01:37:50.990Z,198.62
2024-01-25T01:38:51.000Z,197.75
2024-01-25T01:39:51.091Z,198.68
2024-01-25T01:40:50.996Z,198.73
2024-01-25T01:41:50.997Z,198.35
2024-01-25T01:42:51.007Z,197.52
2024-01-25T01:43:50.958Z,199.35
2024-01-25T01:44:50.958Z,198.71
2024-01-25T01:45:51.046Z,198.74
2024-01-25T01:46:50.913Z,198.69
2024-01-25T01:47:51.080Z,199.41
2024-01-25T01:48:51.132Z,198.89
2024-01-25T01:49:50.972Z,198.05
2024-01-25T01:50:51.131Z,199.44
2024-01-25T01:51:50.932Z,199.30
2024-01-25T01:52:50.858Z,199.32
2024-01-25T01:53:50.848Z,199.30
2024-01-25T01:54:50.836Z,198.88
2024-01-25T01:55:50.843Z,198.73
2024-01-25T01:56:50.809Z,198.46
2024-01-25T01:57:50.864Z,198.23
2024-01-25T01:58:50.788Z,200.00
2024-01-25T01:59:50.783Z,197.37
2024-01-25T02:00:50.855Z,198.16
2024-01-25T02:01:50.907Z,197.29
2024-01-25T02:02:50.765Z,197.02
2024-01-25T02:03:50.842Z,197.52
2024-01-25T02:04:50.925Z,198.20
2024-01-25T02:05:50.743Z,196.97
2024-01-25T02:06:50.936Z,197.32
2024-01-25T02:07:50.763Z,197.20
2024-01-25T02:08:50.731Z,197.29
2024-01-25T02:09:50.802Z,197.11
2024-01-25T02:10:50.710Z,196.79
2024-01-25T02:11:50.697Z,196.89
2024-01-25T02:12:50.732Z,197.00
2024-01-25T02:13:50.690Z,197.10
2024-01-25T02:14:50.688Z,197.78
2024-01-25T02:15:50.736Z,196.90
2024-01-25T02:16:50.680Z,197.14
2024-01-25T02:17:50.683Z,197.52
2024-01-25T02:18:50.782Z,196.90
2024-01-25T02:19:50.726Z,197.66
2024-01-25T02:20:50.609Z,196.33
2024-01-25T02:21:50.649Z,197.10
2024-01-25T02:22:50.588Z,196.55
2024-01-25T02:23:50.607Z,197.18
2024-01-25T02:24:50.669Z,195.61
2024-01-25T02:25:50.567Z,198.16
2024-01-25T02:26:50.554Z,196.72
2024-01-25T02:27:50.578Z,197.23
2024-01-25T02:28:50.536Z,197.88
2024-01-25T02:29:50.531Z,198.11
2024-01-25T02:30:50.544Z,196.29
2024-01-25T02:31:50.510Z,196.50
2024-01-25T02:32:50.563Z,196.01
2024-01-25T02:33:50.802Z,194.97
2024-01-25T02:34:50.648Z,195.09
2024-01-25T02:35:50.456Z,195.12
2024-01-25T02:36:50.462Z,195.96
2024-01-25T02:37:50.434Z,195.56
2024-01-25T02:38:50.423Z,195.10
2024-01-25T02:39:50.468Z,195.60
2024-01-25T02:40:50.417Z,195.91
2024-01-25T02:41:50.406Z,196.57
2024-01-25T02:42:50.425Z,197.86
2024-01-25T02:43:50.390Z,195.07
2024-01-25T02:44:50.401Z,195.10
2024-01-25T02:45:50.399Z,195.68
2024-01-25T02:46:50.379Z,196.17
2024-01-25T02:47:50.423Z,197.31
2024-01-25T02:48:50.501Z,196.50
2024-01-25T02:49:50.433Z,197.30
2024-01-25T02:50:50.343Z,198.21
2024-01-25T02:51:50.341Z,197.63
2024-01-25T02:52:50.331Z,197.65
2024-01-25T02:53:50.308Z,197.70
2024-01-25T02:54:50.378Z,197.14
2024-01-25T02:55:50.287Z,197.39
2024-01-25T02:56:50.302Z,195.60
2024-01-25T02:57:50.307Z,196.38
2024-01-25T02:58:50.262Z,196.41
2024-01-25T02:59:50.268Z,196.46
2024-01-25T03:00:50.332Z,195.89
2024-01-25T03:01:50.317Z,196.96
2024-01-25T03:02:50.223Z,196.87
2024-01-25T03:03:50.288Z,195.97
2024-01-25T03:04:50.276Z,196.03
2024-01-25T03:05:50.557Z,196.20
2024-01-25T03:06:50.200Z,196.06
2024-01-25T03:07:50.197Z,194.90
2024-01-25T03:08:50.123Z,195.46
2024-01-25T03:09:50.157Z,194.66
2024-01-25T03:10:50.103Z,196.33
2024-01-25T03:11:50.093Z,195.36
2024-01-25T03:12:50.117Z,195.78
2024-01-25T03:13:50.064Z,196.39
2024-01-25T03:14:50.042Z,195.05
2024-01-25T03:15:50.053Z,194.54
2024-01-25T03:16:50.005Z,192.67
2024-01-25T03:17:50.098Z,191.09
2024-01-25T03:18:50.082Z,190.77
2024-01-25T03:19:50.038Z,188.85
2024-01-25T03:20:49.943Z,184.91
2024-01-25T03:21:49.963Z,182.42
2024-01-25T03:22:49.913Z,179.70
2024-01-25T03:23:49.931Z,176.81
2024-01-25T03:24:49.939Z,172.28
2024-01-25T03:25:49.886Z,168.94
2024-01-25T03:26:49.888Z,167.42
2024-01-25T03:27:49.877Z,167.29
2024-01-25T03:28:49.843Z,162.89
2024-01-25T03:29:49.845Z,159.68
2024-01-25T03:30:49.861Z,155.03
2024-01-25T03:31:49.825Z,152.77
2024-01-25T03:32:49.917Z,150.68
2024-01-25T03:33:49.982Z,147.76
2024-01-25T03:34:50.055Z,142.96
2024-01-25T03:35:49.805Z,139.66
2024-01-25T03:36:49.891Z,137.05
2024-01-25T03:37:49.797Z,133.55
2024-01-25T03:38:49.807Z,128.78
2024-01-25T03:39:50.085Z,127.15
2024-01-25T03:40:49.918Z,123.20
2024-01-25T03:41:49.984Z,121.06
2024-01-25T03:43:02.949Z,117.12
2024-01-25T03:43:51.185Z,115.45
2024-01-25T03:44:50.031Z,113.73
2024-01-25T03:45:50.051Z,110.01
2024-01-25T03:46:50.010Z,106.75
2024-01-25T03:47:50.066Z,106.26
2024-01-25T03:48:50.111Z,104.19
2024-01-25T03:49:50.073Z,101.57
2024-01-25T03:50:50.027Z,97.49
2024-01-25T03:51:50.008Z,94.60
2024-01-25T03:52:49.971Z,91.54
2024-01-25T03:53:49.963Z,87.78
2024-01-25T03:54:49.994Z,83.26
2024-01-25T03:55:49.956Z,77.36
2024-01-25T03:56:49.961Z,74.08
2024-01-25T03:57:50.044Z,70.96
2024-01-25T03:58:49.952Z,65.64
2024-01-25T03:59:49.964Z,63.16
2024-01-25T04:00:50.054Z,55.93
2024-01-25T04:01:50.141Z,52.85
2024-01-25T04:02:49.974Z,50.73
2024-01-25T04:03:50.081Z,50.11
2024-01-25T04:04:50.871Z,51.88
2024-01-25T04:05:50.012Z,49.93
2024-01-25T04:06:50.023Z,49.60
2024-01-25T04:07:49.950Z,51.29
2024-01-25T04:08:49.946Z,51.93
2024-01-25T04:09:51.277Z,49.99
2024-01-25T04:10:49.972Z,51.10
2024-01-25T04:11:49.994Z,50.00
2024-01-25T04:12:50.002Z,50.84
2024-01-25T04:13:50.080Z,51.46
2024-01-25T04:14:51.306Z,49.11
2024-01-25T04:15:51.425Z,51.03
2024-01-25T04:16:50.020Z,51.24
2024-01-25T04:17:50.075Z,47.72
2024-01-25T04:18:50.108Z,49.50
2024-01-25T04:19:59.211Z,50.42
2024-01-25T04:21:20.169Z,51.49
2024-01-25T04:21:50.059Z,51.57
2024-01-25T04:22:50.061Z,52.20
2024-01-25T04:23:50.049Z,52.73
2024-01-25T04:24:50.179Z,53.48
2024-01-25T04:25:50.346Z,54.43
2024-01-25T04:26:50.065Z,51.32
2024-01-25T04:27:50.123Z,51.76
2024-01-25T04:28:50.066Z,50.20
2024-01-25T04:29:50.968Z,50.00
2024-01-25T04:30:50.801Z,50.64
2024-01-25T04:31:50.091Z,50.00
2024-01-25T04:32:50.163Z,50.00
2024-01-25T04:33:50.257Z,50.81
2024-01-25T04:34:50.359Z,50.72
2024-01-25T04:35:50.420Z,47.14
2024-01-25T04:36:50.120Z,47.58
2024-01-25T04:37:50.098Z,45.95
2024-01-25T04:38:50.107Z,46.92
2024-01-25T04:39:50.154Z,50.26
2024-01-25T04:59:57.777Z,50.00
2024-01-25T05:04:21.058Z,50.00
2024-01-25T05:04:57.851Z,50.00
2024-01-25T05:05:57.755Z,50.00
2024-01-25T05:06:57.966Z,50.00
2024-01-25T05:07:57.862Z,50.00
2024-01-25T05:08:57.773Z,50.00
2024-01-25T05:09:57.948Z,50.00
2024-01-25T05:10:57.784Z,49.61
2024-01-25T05:11:57.790Z,51.15
2024-01-25T05:12:57.833Z,49.84
2024-01-25T05:13:57.804Z,49.17
2024-01-25T05:14:57.827Z,50.75
2024-01-25T05:15:57.862Z,46.24
2024-01-25T05:16:57.828Z,42.54
2024-01-25T05:17:57.900Z,39.55
2024-01-25T05:18:57.948Z,31.71
2024-01-25T05:19:57.989Z,28.60
2024-01-25T05:20:59.230Z,43.65
2024-01-25T05:21:57.883Z,52.53
2024-01-25T05:22:57.879Z,50.50
2024-01-25T05:23:57.860Z,50.08
2024-01-25T05:24:57.941Z,50.00
2024-01-25T05:25:57.862Z,50.00
2024-01-25T05:26:57.864Z,51.73
2024-01-25T05:27:58.061Z,50.00
2024-01-25T05:28:57.900Z,52.69
2024-01-25T05:29:57.953Z,51.81
2024-01-25T05:30:57.982Z,50.50
2024-01-25T05:31:57.968Z,47.08
2024-01-25T05:32:58.019Z,44.30
2024-01-25T05:33:58.083Z,38.70
2024-01-25T05:34:58.051Z,38.48
2024-01-25T05:35:57.957Z,50.00
2024-01-25T05:36:58.025Z,50.85
2024-01-25T05:37:57.950Z,50.30
2024-01-25T05:38:57.976Z,51.34
2024-01-25T05:39:58.075Z,51.58
2024-01-25T05:40:57.986Z,50.00
2024-01-25T05:41:58.024Z,50.46
2024-01-25T05:42:58.097Z,51.59
2024-01-25T05:43:58.132Z,50.58
2024-01-25T05:44:58.206Z,51.34
2024-01-25T05:45:58.279Z,50.61
2024-01-25T05:46:58.298Z,51.93
2024-01-25T05:47:58.482Z,50.35
2024-01-25T05:48:58.601Z,51.97
2024-01-25T05:49:58.603Z,52.74
2024-01-25T05:50:58.537Z,51.35
2024-01-25T05:51:58.613Z,51.43
2024-01-25T05:52:58.537Z,49.32
2024-01-25T05:53:58.549Z,51.98
2024-01-25T05:54:59.683Z,59.19
2024-01-25T05:55:58.545Z,66.07
2024-01-25T05:56:58.548Z,76.12
2024-01-25T05:57:58.588Z,84.22
2024-01-25T05:58:58.563Z,92.38
2024-01-25T05:59:58.559Z,97.84
2024-01-25T06:00:58.633Z,107.51
2024-01-25T06:01:58.611Z,107.88
2024-01-25T06:02:58.635Z,110.40
2024-01-25T06:03:58.647Z,117.41
2024-01-25T06:04:58.763Z,128.85
2024-01-25T06:05:58.695Z,146.89
2024-01-25T06:06:58.651Z,155.32
2024-01-25T06:07:58.799Z,161.55
2024-01-25T06:09:06.582Z,164.82
2024-01-25T06:09:59.631Z,165.06
2024-01-25T06:10:58.561Z,166.35
2024-01-25T06:11:58.557Z,169.23
2024-01-25T06:12:58.682Z,174.47
2024-01-25T06:13:58.618Z,186.75
2024-01-25T06:14:58.561Z,189.96
2024-01-25T06:15:58.586Z,195.73
2024-01-25T06:16:58.543Z,197.96
2024-01-25T06:17:58.588Z,200.58
2024-01-25T06:18:58.602Z,198.27
2024-01-25T06:19:58.670Z,198.39
2024-01-25T06:20:58.557Z,199.34
2024-01-25T06:21:58.568Z,198.59
2024-01-25T06:22:58.534Z,199.93
2024-01-25T06:23:58.524Z,203.53
2024-01-25T06:24:58.600Z,208.73
2024-01-25T06:25:58.528Z,217.95
2024-01-25T06:26:58.548Z,201.27
2024-01-25T06:27:58.548Z,199.36
2024-01-25T06:28:58.528Z,200.00
2024-01-25T06:29:58.511Z,199.99
2024-01-25T06:30:58.651Z,199.03
2024-01-25T06:31:58.488Z,196.97
2024-01-25T06:32:58.593Z,194.59
2024-01-25T06:33:58.582Z,191.55
2024-01-25T06:34:58.688Z,189.42
2024-01-25T06:35:58.467Z,189.84
2024-01-25T06:36:58.494Z,188.82
2024-01-25T06:37:58.474Z,186.34
2024-01-25T06:38:58.464Z,185.52
2024-01-25T06:39:58.495Z,184.38
2024-01-25T06:40:58.440Z,187.21
2024-01-25T06:41:58.423Z,188.06
2024-01-25T06:42:58.433Z,188.35
2024-01-25T06:43:58.410Z,189.92
2024-01-25T06:44:58.405Z,190.50
2024-01-25T06:45:58.430Z,189.79
2024-01-25T06:46:58.386Z,189.46
2024-01-25T06:47:58.453Z,170.95
2024-01-25T06:48:58.478Z,156.35
2024-01-25T06:49:58.562Z,136.84
2024-01-25T06:50:58.429Z,126.40
2024-01-25T06:51:58.449Z,112.38
2024-01-25T06:52:58.425Z,98.29
2024-01-25T06:53:58.454Z,87.29
2024-01-25T06:54:58.474Z,75.24
2024-01-25T06:55:58.438Z,66.27
2024-01-25T06:56:58.448Z,58.77
2024-01-25T06:57:58.539Z,53.28
2024-01-25T06:58:58.564Z,52.79
2024-01-25T06:59:58.503Z,54.30
2024-01-25T07:00:58.654Z,59.11
2024-01-25T07:01:58.692Z,61.66
2024-01-25T07:02:58.515Z,69.03
2024-01-25T07:03:58.633Z,72.02
2024-01-25T07:04:58.591Z,75.96
2024-01-25T07:05:58.555Z,82.83
2024-01-25T07:06:58.619Z,88.94
2024-01-25T07:07:58.585Z,97.26
2024-01-25T07:08:58.536Z,103.98
2024-01-25T07:09:58.550Z,109.97
2024-01-25T07:10:58.538Z,118.69
2024-01-25T07:11:58.508Z,118.98
2024-01-25T07:12:58.587Z,119.24
2024-01-25T07:13:58.515Z,122.07
2024-01-25T07:14:58.551Z,119.75
2024-01-25T07:15:58.573Z,124.09
2024-01-25T07:16:58.484Z,133.91
2024-01-25T07:17:58.515Z,150.36
2024-01-25T07:18:58.561Z,176.10
2024-01-25T07:19:58.552Z,184.08
2024-01-25T07:20:58.467Z,189.94
2024-01-25T07:21:58.519Z,196.43
2024-01-25T07:22:58.451Z,199.84
2024-01-25T07:23:58.415Z,199.77
2024-01-25T07:25:01.718Z,200.00
2024-01-25T07:25:58.400Z,200.00
2024-01-25T07:26:58.394Z,200.00
2024-01-25T07:27:58.461Z,199.95
2024-01-25T07:28:58.380Z,200.00
2024-01-25T07:29:58.373Z,200.00
2024-01-25T07:30:58.463Z,199.80
2024-01-25T07:31:58.328Z,200.00
2024-01-25T07:32:58.373Z,200.00
2024-01-25T07:33:58.372Z,199.92
2024-01-25T07:34:58.422Z,199.56
2024-01-25T07:35:58.290Z,200.00
2024-01-25T07:36:58.320Z,199.72
2024-01-25T07:37:58.262Z,200.00
2024-01-25T07:38:58.232Z,200.00
2024-01-25T07:47:04.365Z,199.99
2024-01-25T07:48:04.648Z,201.24
2024-01-25T07:48:59.259Z,200.94
2024-01-25T07:49:58.169Z,202.97
2024-01-25T07:50:58.154Z,203.83
2024-01-25T07:51:58.104Z,201.64
2024-01-25T07:52:58.047Z,197.09
2024-01-25T07:53:58.081Z,194.51
2024-01-25T07:54:58.126Z,189.99
2024-01-25T07:55:58.042Z,189.48
2024-01-25T07:56:58.033Z,188.04
2024-01-25T07:57:58.055Z,185.75
2024-01-25T07:58:58.003Z,184.82
2024-01-25T07:59:58.012Z,184.13
2024-01-25T08:00:58.121Z,183.98
2024-01-25T08:01:58.106Z,184.05
2024-01-25T08:02:57.963Z,184.32
2024-01-25T08:03:58.075Z,183.32
2024-01-25T08:04:58.097Z,186.11
2024-01-25T08:05:58.052Z,185.87
2024-01-25T08:06:58.113Z,188.05
2024-01-25T08:07:57.987Z,189.17
2024-01-25T08:08:57.920Z,189.86
2024-01-25T08:09:57.995Z,191.39
2024-01-25T08:10:57.859Z,193.16
2024-01-25T08:11:57.855Z,194.01
2024-01-25T08:13:03.216Z,195.42
2024-01-25T08:13:58.891Z,195.46
2024-01-25T08:15:00.353Z,195.71
2024-01-25T08:15:58.922Z,196.71
2024-01-25T08:16:58.110Z,198.32
2024-01-25T08:17:58.211Z,201.14
2024-01-25T08:18:58.425Z,199.92
2024-01-25T08:19:58.352Z,199.78
2024-01-25T08:20:58.518Z,199.71
2024-01-25T08:21:58.383Z,199.69
2024-01-25T08:22:58.397Z,198.94
2024-01-25T08:23:58.425Z,199.68
2024-01-25T08:24:58.514Z,200.00
2024-01-25T08:25:58.548Z,199.40
2024-01-25T08:26:58.577Z,199.86
2024-01-25T08:27:58.679Z,199.72
2024-01-25T08:28:58.646Z,199.17
2024-01-25T08:29:58.633Z,199.25
2024-01-25T08:30:58.692Z,199.53
2024-01-25T08:31:58.600Z,200.78
2024-01-25T08:32:58.629Z,199.34
2024-01-25T08:33:58.687Z,200.05
2024-01-25T08:35:00.412Z,201.37
2024-01-25T08:36:01.123Z,202.10
2024-01-25T08:36:58.630Z,191.75
2024-01-25T08:37:58.479Z,179.85
2024-01-25T08:38:58.789Z,168.94
2024-01-25T08:39:58.467Z,159.28
2024-01-25T08:44:58.360Z,151.02
2024-01-25T08:45:58.414Z,148.92
2024-01-25T08:46:58.359Z,130.95
2024-01-25T08:47:58.477Z,115.71
2024-01-25T08:48:58.520Z,102.03
2024-01-25T08:49:58.471Z,92.54
2024-01-25T08:50:58.561Z,83.88
2024-01-25T08:51:58.432Z,74.93
2024-01-25T08:52:58.399Z,68.82
2024-01-25T08:53:58.394Z,63.93
2024-01-25T08:54:58.490Z,60.39
2024-01-25T08:55:58.424Z,54.45
2024-01-25T08:56:58.431Z,50.00
2024-01-25T08:57:58.490Z,50.25
2024-01-25T08:58:58.444Z,50.18
2024-01-25T08:59:58.427Z,49.89
2024-01-25T09:00:58.509Z,51.62
2024-01-25T09:01:58.522Z,52.38
2024-01-25T09:02:58.427Z,56.46
2024-01-25T09:03:58.563Z,61.73
2024-01-25T09:04:58.599Z,68.10
2024-01-25T09:05:58.630Z,70.14
2024-01-25T09:06:58.720Z,75.08
2024-01-25T09:07:58.645Z,75.26
2024-01-25T09:08:58.590Z,76.54
2024-01-25T09:09:58.695Z,75.51
2024-01-25T09:10:58.621Z,77.37
2024-01-25T09:11:58.566Z,81.54
2024-01-25T09:12:58.628Z,88.44
2024-01-25T09:13:58.583Z,99.47
2024-01-25T09:14:58.570Z,104.20
2024-01-25T09:15:58.548Z,108.20
2024-01-25T09:16:58.541Z,151.57
2024-01-25T09:17:58.635Z,145.36
2024-01-25T09:18:58.538Z,146.38
2024-01-25T09:19:58.590Z,145.94
2024-01-25T09:20:58.502Z,146.06
2024-01-25T09:21:58.504Z,145.94
2024-01-25T09:22:58.421Z,147.28
2024-01-25T09:23:58.428Z,149.16
2024-01-25T09:24:58.453Z,147.21
2024-01-25T09:25:58.390Z,147.95
2024-01-25T09:26:58.374Z,147.62
2024-01-25T09:27:58.560Z,145.34
2024-01-25T09:28:58.390Z,144.16
2024-01-25T09:29:58.453Z,142.17
2024-01-25T09:30:58.568Z,142.07
2024-01-25T09:31:58.565Z,141.19
2024-01-25T09:32:58.689Z,140.18
2024-01-25T09:33:58.849Z,129.02
2024-01-25T09:34:58.755Z,121.80
2024-01-25T09:35:58.830Z,112.66
2024-01-25T09:36:58.673Z,102.62
2024-01-25T09:37:58.725Z,95.23
2024-01-25T09:38:58.830Z,88.35
2024-01-25T09:39:58.929Z,79.81
2024-01-25T09:40:58.892Z,73.14
2024-01-25T09:41:58.992Z,65.47
2024-01-25T09:42:58.939Z,59.18
2024-01-25T09:43:58.913Z,53.76
2024-01-25T09:44:58.930Z,47.79
2024-01-25T09:45:58.990Z,42.17
2024-01-25T09:46:58.915Z,36.27
2024-01-25T09:47:59.069Z,42.22
2024-01-25T09:48:59.080Z,49.14
2024-01-25T09:49:59.003Z,50.23
2024-01-25T09:50:59.129Z,50.19
2024-01-25T09:51:58.962Z,50.00
2024-01-25T09:52:58.950Z,49.78
2024-01-25T09:53:59.014Z,51.45
2024-01-25T09:54:59.147Z,51.67
2024-01-25T09:55:59.117Z,51.97
2024-01-25T09:56:59.185Z,53.75
2024-01-25T09:57:59.329Z,58.61
2024-01-25T09:58:59.218Z,62.72
2024-01-25T09:59:59.265Z,65.97
2024-01-25T10:00:59.406Z,70.30
2024-01-25T10:01:59.411Z,76.71
2024-01-25T10:02:59.290Z,76.84
2024-01-25T10:03:59.337Z,78.09
2024-01-25T10:04:59.441Z,81.77
2024-01-25T10:05:59.377Z,89.55
2024-01-25T10:06:59.309Z,102.04
2024-01-25T10:07:59.320Z,107.38
2024-01-25T10:08:59.253Z,112.75
2024-01-25T10:09:59.299Z,116.58
2024-01-25T10:10:59.253Z,119.89
2024-01-25T10:12:10.653Z,121.44
2024-01-25T10:13:00.319Z,121.48
2024-01-25T10:13:59.325Z,122.01
2024-01-25T10:14:59.309Z,122.70
2024-01-25T10:15:59.299Z,121.60
2024-01-25T10:16:59.958Z,122.35
2024-01-25T10:18:15.785Z,123.93
2024-01-25T10:19:00.498Z,121.72
2024-01-25T10:19:59.628Z,122.74
2024-01-25T10:20:59.458Z,124.53
2024-01-25T10:21:59.477Z,127.31
2024-01-25T10:23:00.304Z,131.30
2024-01-25T10:23:59.460Z,132.09
2024-01-25T10:24:59.293Z,134.08
2024-01-25T10:25:59.360Z,133.35
2024-01-25T10:26:59.234Z,133.49
2024-01-25T10:27:59.299Z,134.27
2024-01-25T10:29:01.952Z,136.68
2024-01-25T10:29:59.286Z,138.21
2024-01-25T10:30:59.252Z,141.32
2024-01-25T10:31:59.307Z,141.87
2024-01-25T10:32:59.191Z,141.73
2024-01-25T10:33:59.252Z,142.92
2024-01-25T10:34:59.275Z,142.67
2024-01-25T10:35:59.282Z,142.18
2024-01-25T10:36:59.210Z,143.04
2024-01-25T10:37:59.147Z,142.99
2024-01-25T10:38:59.136Z,143.27
2024-01-25T10:39:59.123Z,143.33
2024-01-25T10:40:59.115Z,141.78
2024-01-25T10:41:59.107Z,142.57
2024-01-25T10:42:59.206Z,141.64
2024-01-25T10:43:59.088Z,143.07
2024-01-25T10:44:59.099Z,140.18
2024-01-25T10:46:00.405Z,135.80
2024-01-25T10:46:59.080Z,131.83
2024-01-25T10:47:59.188Z,126.87
2024-01-25T10:48:59.234Z,121.97
2024-01-25T10:49:59.239Z,116.48
2024-01-25T10:50:59.098Z,112.78
2024-01-25T10:51:59.162Z,108.94
2024-01-25T10:52:59.095Z,105.26
2024-01-25T10:54:00.074Z,101.18
2024-01-25T10:54:59.141Z,97.57
2024-01-25T10:55:59.117Z,94.40
2024-01-25T10:56:59.144Z,92.32
2024-01-25T10:57:59.198Z,90.62
2024-01-25T10:58:59.152Z,87.52
2024-01-25T10:59:59.160Z,85.08
2024-01-25T11:00:59.241Z,84.56
2024-01-25T11:01:59.266Z,81.66
2024-01-25T11:02:59.127Z,81.13
2024-01-25T11:03:59.241Z,79.19
2024-01-25T11:04:59.270Z,78.00
2024-01-25T11:05:59.229Z,76.22
2024-01-25T11:06:59.220Z,77.11
2024-01-25T11:07:59.238Z,77.00
2024-01-25T11:08:59.172Z,76.20
2024-01-25T11:09:59.205Z,76.46
2024-01-25T11:10:59.238Z,75.66
2024-01-25T11:11:59.234Z,75.67
2024-01-25T11:12:59.208Z,75.70
2024-01-25T11:13:59.207Z,74.62
2024-01-25T11:14:59.202Z,74.86
2024-01-25T11:15:59.356Z,76.89
2024-01-25T11:16:59.229Z,75.66
2024-01-25T11:17:59.381Z,76.04
2024-01-25T11:18:59.474Z,76.08
2024-01-25T11:19:59.440Z,76.22
2024-01-25T11:20:59.355Z,77.59
2024-01-25T11:21:59.276Z,78.02
2024-01-25T11:22:59.239Z,80.61
2024-01-25T11:23:59.269Z,82.46
2024-01-25T11:24:59.320Z,82.02
2024-01-25T11:25:59.271Z,82.10
2024-01-25T11:26:59.291Z,83.57
2024-01-25T11:27:59.397Z,84.69
2024-01-25T11:28:59.286Z,83.58
2024-01-25T11:29:59.303Z,83.45
2024-01-25T11:30:59.328Z,85.10
2024-01-25T11:31:59.291Z,85.61
2024-01-25T11:32:59.361Z,86.07
2024-01-25T11:33:59.433Z,84.90
2024-01-25T11:34:59.519Z,84.94
2024-01-25T11:35:59.345Z,83.56
2024-01-25T11:36:59.348Z,83.76
2024-01-25T11:37:59.304Z,85.07
2024-01-25T11:38:59.374Z,87.33
2024-01-25T11:39:59.372Z,91.17
2024-01-25T11:40:59.349Z,97.27
2024-01-25T11:41:59.324Z,99.19
2024-01-25T11:42:59.376Z,97.05
2024-01-25T11:43:59.336Z,96.13
2024-01-25T11:44:59.312Z,94.52
2024-01-25T11:45:59.418Z,93.06
2024-01-25T11:46:59.302Z,89.09
2024-01-25T11:47:59.374Z,88.34
2024-01-25T11:48:59.415Z,84.54
2024-01-25T11:49:59.478Z,80.93
2024-01-25T11:50:59.350Z,79.66
2024-01-25T11:51:59.374Z,79.66
2024-01-25T11:52:59.352Z,78.41
2024-01-25T11:53:59.345Z,77.28
2024-01-25T11:54:59.375Z,77.58
2024-01-25T11:55:59.367Z,78.04
2024-01-25T11:56:59.386Z,77.80
2024-01-25T11:57:59.415Z,78.14
2024-01-25T11:58:59.367Z,80.67
2024-01-25T11:59:59.357Z,83.58
2024-01-25T12:00:59.461Z,85.54
2024-01-25T12:01:59.439Z,87.59
2024-01-25T12:02:59.388Z,89.08
2024-01-25T12:03:59.492Z,91.87
2024-01-25T12:04:59.447Z,95.70
2024-01-25T12:05:59.603Z,102.04
2024-01-25T12:06:59.435Z,107.34
2024-01-25T12:07:59.473Z,112.57
2024-01-25T12:08:59.391Z,118.36
2024-01-25T12:09:59.447Z,121.34
2024-01-25T12:10:59.443Z,125.72
2024-01-25T12:11:59.491Z,127.27
2024-01-25T12:12:59.651Z,128.41
2024-01-25T12:13:59.639Z,128.47
2024-01-25T12:14:59.695Z,129.86
2024-01-25T12:15:59.853Z,131.25
2024-01-25T12:16:59.836Z,133.72
2024-01-25T12:17:59.956Z,136.54
2024-01-25T12:19:00.124Z,139.55
2024-01-25T12:20:00.105Z,141.89
2024-01-25T12:21:00.066Z,141.47
2024-01-25T12:22:00.099Z,142.69
2024-01-25T12:23:00.088Z,142.92
2024-01-25T12:24:00.194Z,144.14
2024-01-25T12:25:01.154Z,145.88
2024-01-25T12:26:00.252Z,146.70
2024-01-25T12:27:00.227Z,149.38
2024-01-25T12:28:00.262Z,150.35
2024-01-25T12:29:00.274Z,150.81
2024-01-25T12:30:00.386Z,151.77
2024-01-25T12:31:00.339Z,153.46
2024-01-25T12:32:00.296Z,156.51
2024-01-25T12:33:00.478Z,156.55
2024-01-25T12:34:00.618Z,156.75
2024-01-25T12:35:00.464Z,157.47
2024-01-25T12:36:00.404Z,159.79
2024-01-25T12:37:00.332Z,162.37
2024-01-25T12:38:00.242Z,163.11
2024-01-25T12:39:02.248Z,163.18
2024-01-25T12:40:00.362Z,163.56
2024-01-25T12:41:00.238Z,164.01
2024-01-25T12:42:00.288Z,164.75
2024-01-25T12:43:00.323Z,166.89
2024-01-25T12:44:00.230Z,167.37
2024-01-25T12:45:00.226Z,167.44
2024-01-25T12:46:06.705Z,167.53
2024-01-25T12:47:01.262Z,167.57
2024-01-25T12:48:00.301Z,168.00
2024-01-25T12:49:00.332Z,168.46
2024-01-25T12:50:00.186Z,169.59
2024-01-25T12:51:00.176Z,171.33
2024-01-25T12:52:00.283Z,171.46
2024-01-25T12:53:00.132Z,171.69
2024-01-25T12:54:00.146Z,172.88
2024-01-25T12:55:00.203Z,172.71
2024-01-25T12:56:00.121Z,172.70
2024-01-25T12:57:00.120Z,172.76
2024-01-25T12:58:00.163Z,171.36
2024-01-25T12:59:00.094Z,171.40
2024-01-25T13:00:00.104Z,171.65
2024-01-25T13:01:00.165Z,171.81
2024-01-25T13:02:00.105Z,172.92
2024-01-25T13:03:00.079Z,172.83
2024-01-25T13:04:00.133Z,173.88
2024-01-25T13:05:00.129Z,172.07
2024-01-25T13:06:00.198Z,172.88
2024-01-25T13:07:00.098Z,173.29
2024-01-25T13:08:00.035Z,174.83
2024-01-25T13:09:00.018Z,174.88
2024-01-25T13:10:00.062Z,175.22